createdAt,value
2023-05-29T00:00:20.571Z,302.02
2023-05-29T00:01:20.560Z,299.28
2023-05-29T00:02:20.615Z,299.83
2023-05-29T00:03:20.686Z,301.19
2023-05-29T00:04:20.575Z,297.67
2023-05-29T00:05:20.617Z,305.36
2023-05-29T00:06:20.542Z,307.07
2023-05-29T00:07:20.523Z,302.57
2023-05-29T00:08:20.522Z,302.02
2023-05-29T00:09:20.476Z,304.80
2023-05-29T00:10:20.471Z,312.29
2023-05-29T00:11:20.458Z,303.68
2023-05-29T00:12:20.452Z,306.21
2023-05-29T00:13:20.508Z,304.80
2023-05-29T00:14:20.433Z,303.12
2023-05-29T00:15:20.418Z,301.19
2023-05-29T00:16:20.463Z,308.21
2023-05-29T00:17:20.418Z,314.37
2023-05-29T00:18:20.385Z,318.61
2023-05-29T00:19:20.400Z,320.77
2023-05-29T00:20:20.377Z,322.02
2023-05-29T00:21:20.350Z,328.75
2023-05-29T00:22:20.338Z,333.39
2023-05-29T00:23:20.337Z,337.47
2023-05-29T00:24:20.347Z,344.15
2023-05-29T00:25:20.304Z,347.77
2023-05-29T00:26:20.301Z,345.95
2023-05-29T00:27:20.280Z,339.55
2023-05-29T00:28:20.277Z,333.05
2023-05-29T00:29:20.279Z,332.72
2023-05-29T00:30:20.268Z,339.55
2023-05-29T00:31:20.290Z,346.31
2023-05-29T00:32:20.230Z,351.10
2023-05-29T00:33:20.232Z,346.31
2023-05-29T00:34:20.216Z,349.61
2023-05-29T00:35:20.209Z,351.84
2023-05-29T00:36:20.205Z,347.40
2023-05-29T00:37:20.199Z,340.60
2023-05-29T00:38:20.169Z,338.17
2023-05-29T00:39:20.162Z,336.10
2023-05-29T00:40:20.180Z,331.05
2023-05-29T00:41:20.140Z,331.72
2023-05-29T00:42:20.131Z,332.05
2023-05-29T00:43:20.114Z,328.42
2023-05-29T00:44:20.124Z,326.15
2023-05-29T00:45:20.142Z,322.97
2023-05-29T00:46:20.117Z,322.97
2023-05-29T00:47:20.070Z,316.17
2023-05-29T00:48:20.070Z,314.67
2023-05-29T00:49:20.046Z,308.21
2023-05-29T00:50:20.039Z,314.07
2023-05-29T00:51:20.045Z,313.18
2023-05-29T00:52:20.035Z,310.53
2023-05-29T00:53:20.009Z,309.37
2023-05-29T00:54:19.997Z,300.64
2023-05-29T00:55:19.985Z,301.47
2023-05-29T00:56:19.976Z,293.96
2023-05-29T00:57:19.990Z,288.32
2023-05-29T00:58:19.965Z,287.82
2023-05-29T00:59:19.944Z,290.86
2023-05-29T01:00:19.946Z,287.82
2023-05-29T01:01:20.003Z,290.86
2023-05-29T01:02:19.988Z,288.07
2023-05-29T01:03:20.013Z,280.73
2023-05-29T01:04:19.876Z,273.76
2023-05-29T01:05:19.882Z,269.95
2023-05-29T01:06:19.880Z,265.83
2023-05-29T01:07:19.854Z,262.66
2023-05-29T01:08:19.861Z,264.98
2023-05-29T01:09:19.841Z,263.71
2023-05-29T01:10:19.832Z,264.55
2023-05-29T01:11:19.812Z,262.45
2023-05-29T01:12:19.800Z,263.71
2023-05-29T01:13:19.794Z,264.98
2023-05-29T01:14:19.802Z,263.29
2023-05-29T01:15:19.779Z,261.00
2023-05-29T01:16:19.874Z,255.95
2023-05-29T01:17:19.748Z,249.57
2023-05-29T01:18:19.747Z,245.31
2023-05-29T01:19:19.719Z,246.96
2023-05-29T01:20:19.781Z,247.70
2023-05-29T01:21:19.709Z,250.14
2023-05-29T01:22:19.687Z,248.45
2023-05-29T01:23:19.716Z,248.26
2023-05-29T01:24:19.675Z,249.95
2023-05-29T01:25:19.656Z,244.59
2023-05-29T01:26:19.668Z,240.49
2023-05-29T01:27:19.634Z,242.97
2023-05-29T01:28:19.644Z,244.41
2023-05-29T01:29:19.608Z,242.08
2023-05-29T01:30:19.611Z,241.20
2023-05-29T01:31:19.637Z,245.68
2023-05-29T01:32:19.606Z,249.20
2023-05-29T01:33:19.570Z,253.79
2023-05-29T01:34:19.575Z,256.75
2023-05-29T01:35:19.572Z,258.55
2023-05-29T01:36:19.541Z,257.55
2023-05-29T01:37:19.531Z,253.40
2023-05-29T01:38:19.535Z,248.07
2023-05-29T01:39:19.505Z,249.20
2023-05-29T01:40:19.492Z,247.70
2023-05-29T01:41:19.477Z,245.50
2023-05-29T01:42:19.484Z,248.45
2023-05-29T01:43:19.465Z,243.33
2023-05-29T01:44:19.482Z,242.97
2023-05-29T01:45:19.445Z,240.85
2023-05-29T01:46:19.541Z,238.07
2023-05-29T01:47:19.439Z,243.69
2023-05-29T01:48:19.417Z,241.20
2023-05-29T01:49:19.424Z,238.07
2023-05-29T01:50:19.409Z,237.39
2023-05-29T01:51:19.393Z,235.19
2023-05-29T01:52:19.369Z,241.90
2023-05-29T01:53:19.371Z,244.05
2023-05-29T01:54:19.351Z,243.87
2023-05-29T01:55:19.337Z,246.04
2023-05-29T01:56:19.336Z,251.09
2023-05-29T01:57:19.321Z,248.45
2023-05-29T01:58:19.339Z,243.87
2023-05-29T01:59:19.300Z,242.26
2023-05-29T02:00:19.282Z,239.10
2023-05-29T02:01:19.318Z,237.05
2023-05-29T02:02:19.306Z,238.41
2023-05-29T02:03:19.278Z,238.07
2023-05-29T02:04:19.292Z,240.85
2023-05-29T02:05:19.265Z,244.41
2023-05-29T02:06:19.232Z,246.78
2023-05-29T02:07:19.227Z,241.02
2023-05-29T02:08:19.208Z,240.15
2023-05-29T02:09:19.185Z,242.97
2023-05-29T02:10:19.201Z,244.05
2023-05-29T02:11:19.182Z,246.78
2023-05-29T02:12:19.173Z,246.96
2023-05-29T02:13:19.148Z,241.20
2023-05-29T02:14:19.127Z,245.13
2023-05-29T02:15:19.135Z,245.50
2023-05-29T02:16:19.152Z,251.28
2023-05-29T02:17:19.103Z,246.60
2023-05-29T02:18:19.086Z,246.04
2023-05-29T02:19:19.082Z,247.52
2023-05-29T02:20:19.116Z,243.87
2023-05-29T02:21:19.051Z,244.05
2023-05-29T02:22:19.078Z,246.60
2023-05-29T02:23:19.034Z,242.08
2023-05-29T02:24:19.023Z,239.80
2023-05-29T02:25:19.045Z,241.20
2023-05-29T02:26:19.011Z,238.93
2023-05-29T02:27:19.010Z,234.69
2023-05-29T02:28:18.978Z,234.03
2023-05-29T02:29:18.992Z,230.28
2023-05-29T02:30:18.981Z,229.64
2023-05-29T02:31:18.964Z,228.52
2023-05-29T02:32:18.952Z,221.18
2023-05-29T02:33:18.951Z,217.12
2023-05-29T02:34:18.911Z,217.26
2023-05-29T02:35:18.911Z,215.14
2023-05-29T02:36:18.891Z,214.02
2023-05-29T02:37:18.878Z,211.15
2023-05-29T02:38:18.897Z,208.89
2023-05-29T02:39:18.871Z,206.93
2023-05-29T02:40:18.847Z,202.74
2023-05-29T02:41:18.839Z,204.37
2023-05-29T02:42:18.836Z,204.24
2023-05-29T02:43:18.826Z,204.11
2023-05-29T02:44:18.809Z,201.50
2023-05-29T02:45:18.819Z,196.24
2023-05-29T02:46:18.813Z,195.31
2023-05-29T02:47:18.766Z,197.41
2023-05-29T02:48:18.783Z,200.52
2023-05-29T02:49:18.755Z,202.12
2023-05-29T02:50:18.753Z,201.01
2023-05-29T02:51:18.735Z,198.36
2023-05-29T02:52:18.725Z,195.77
2023-05-29T02:53:18.701Z,195.89
2023-05-29T02:54:18.714Z,196.94
2023-05-29T02:55:18.687Z,201.26
2023-05-29T02:56:18.674Z,202.49
2023-05-29T02:57:18.663Z,200.04
2023-05-29T02:58:18.653Z,202.86
2023-05-29T02:59:18.637Z,200.52
2023-05-29T03:00:18.656Z,196.71
2023-05-29T03:01:18.639Z,178.48
2023-05-29T03:02:18.615Z,178.67
2023-05-29T03:03:18.735Z,186.81
2023-05-29T03:04:18.627Z,191.13
2023-05-29T03:05:18.628Z,194.96
2023-05-29T03:06:18.584Z,198.36
2023-05-29T03:07:18.558Z,198.12
2023-05-29T03:08:18.552Z,201.26
2023-05-29T03:09:18.546Z,201.38
2023-05-29T03:10:18.539Z,202.37
2023-05-29T03:11:18.513Z,203.24
2023-05-29T03:12:18.525Z,207.44
2023-05-29T03:13:18.491Z,209.15
2023-05-29T03:14:18.478Z,207.84
2023-05-29T03:15:18.467Z,209.15
2023-05-29T03:16:18.558Z,202.99
2023-05-29T03:17:18.449Z,199.55
2023-05-29T03:18:18.430Z,202.12
2023-05-29T03:19:18.428Z,198.00
2023-05-29T03:20:18.526Z,195.54
2023-05-29T03:21:18.442Z,194.74
2023-05-29T03:22:18.444Z,198.84
2023-05-29T03:23:18.379Z,197.17
2023-05-29T03:24:18.377Z,198.60
2023-05-29T03:25:18.394Z,200.77
2023-05-29T03:26:18.352Z,202.74
2023-05-29T03:27:18.366Z,201.50
2023-05-29T03:28:18.570Z,205.26
2023-05-29T03:29:18.316Z,205.89
2023-05-29T03:30:18.329Z,204.24
2023-05-29T03:31:18.332Z,205.64
2023-05-29T03:32:18.278Z,204.24
2023-05-29T03:33:18.275Z,203.61
2023-05-29T03:34:18.263Z,199.19
2023-05-29T03:35:18.259Z,203.86
2023-05-29T03:36:18.256Z,207.84
2023-05-29T03:37:18.243Z,208.89
2023-05-29T03:38:18.214Z,208.10
2023-05-29T03:39:18.209Z,210.88
2023-05-29T03:40:18.223Z,210.35
2023-05-29T03:41:18.204Z,210.62
2023-05-29T03:42:18.182Z,208.75
2023-05-29T03:43:18.168Z,206.79
2023-05-29T03:44:18.157Z,209.15
2023-05-29T03:45:18.159Z,206.41
2023-05-29T03:46:18.204Z,210.75
2023-05-29T03:47:18.266Z,214.02
2023-05-29T03:48:18.107Z,211.83
2023-05-29T03:49:18.103Z,211.42
2023-05-29T03:50:18.093Z,215.56
2023-05-29T03:51:18.079Z,216.41
2023-05-29T03:52:18.084Z,217.40
2023-05-29T03:53:18.063Z,215.70
2023-05-29T03:54:18.062Z,213.75
2023-05-29T03:55:18.035Z,213.89
2023-05-29T03:56:18.026Z,213.89
2023-05-29T03:57:18.068Z,212.92
2023-05-29T03:58:18.039Z,208.10
2023-05-29T03:59:18.008Z,213.89
2023-05-29T04:00:17.989Z,217.83
2023-05-29T04:01:17.987Z,210.48
2023-05-29T04:02:20.130Z,210.62
2023-05-29T04:03:18.064Z,212.79
2023-05-29T04:04:18.016Z,211.15
2023-05-29T04:05:17.928Z,207.57
2023-05-29T04:06:17.964Z,209.41
2023-05-29T04:07:17.929Z,208.89
2023-05-29T04:08:17.893Z,203.86
2023-05-29T04:09:17.881Z,201.01
2023-05-29T04:10:17.878Z,195.66
2023-05-29T04:11:17.864Z,190.69
2023-05-29T04:12:17.857Z,194.85
2023-05-29T04:13:17.866Z,196.82
2023-05-29T04:14:20.278Z,195.08
2023-05-29T04:15:17.821Z,194.62
2023-05-29T04:16:17.889Z,203.36
2023-05-29T04:17:17.870Z,203.24
2023-05-29T04:18:17.822Z,206.41
2023-05-29T04:19:18.255Z,210.75
2023-05-29T04:20:17.797Z,214.02
2023-05-29T04:21:17.751Z,216.69
2023-05-29T04:22:17.747Z,223.58
2023-05-29T04:23:17.735Z,225.26
2023-05-29T04:24:17.743Z,221.93
2023-05-29T04:25:17.720Z,218.41
2023-05-29T04:26:17.702Z,219.71
2023-05-29T04:27:17.845Z,220.01
2023-05-29T04:28:17.721Z,221.48
2023-05-29T04:29:17.674Z,221.48
2023-05-29T04:30:17.672Z,226.18
2023-05-29T04:31:17.705Z,226.65
2023-05-29T04:32:17.632Z,223.28
2023-05-29T04:33:17.622Z,224.19
2023-05-29T04:34:17.693Z,224.79
2023-05-29T04:35:17.615Z,220.01
2023-05-29T04:36:17.614Z,220.89
2023-05-29T04:37:17.580Z,218.26
2023-05-29T04:38:17.583Z,220.89
2023-05-29T04:39:17.557Z,225.41
2023-05-29T04:40:17.566Z,222.08
2023-05-29T04:41:17.549Z,218.55
2023-05-29T04:42:17.533Z,214.02
2023-05-29T04:43:17.523Z,216.55
2023-05-29T04:44:17.503Z,217.40
2023-05-29T04:45:17.539Z,211.29
2023-05-29T04:46:17.513Z,208.89
2023-05-29T04:47:17.480Z,211.56
2023-05-29T04:48:17.476Z,209.02
2023-05-29T04:49:17.455Z,204.75
2023-05-29T04:50:17.451Z,202.74
2023-05-29T04:51:17.437Z,203.49
2023-05-29T04:52:17.457Z,201.01
2023-05-29T04:53:17.399Z,201.62
2023-05-29T04:54:17.389Z,198.71
2023-05-29T04:55:17.404Z,205.00
2023-05-29T04:56:17.370Z,222.98
2023-05-29T04:57:17.373Z,222.83
2023-05-29T04:58:17.366Z,219.57
2023-05-29T04:59:17.336Z,222.38
2023-05-29T05:00:17.332Z,219.57
2023-05-29T05:01:17.366Z,222.98
2023-05-29T05:02:17.308Z,226.33
2023-05-29T05:03:17.292Z,229.32
2023-05-29T05:04:17.360Z,234.03
2023-05-29T05:05:17.284Z,229.00
2023-05-29T05:06:17.258Z,227.74
2023-05-29T05:07:17.275Z,230.60
2023-05-29T05:08:17.271Z,232.54
2023-05-29T05:09:17.226Z,233.70
2023-05-29T05:10:17.241Z,239.10
2023-05-29T05:11:17.211Z,238.41
2023-05-29T05:12:17.285Z,240.15
2023-05-29T05:13:17.188Z,246.23
2023-05-29T05:14:17.203Z,239.10
2023-05-29T05:15:17.168Z,237.73
2023-05-29T05:16:17.195Z,241.73
2023-05-29T05:17:17.148Z,241.90
2023-05-29T05:18:17.130Z,237.39
2023-05-29T05:19:17.129Z,249.95
2023-05-29T05:20:17.151Z,257.14
2023-05-29T05:21:17.096Z,251.09
2023-05-29T05:22:17.087Z,248.82
2023-05-29T05:23:17.073Z,249.20
2023-05-29T05:24:17.066Z,246.41
2023-05-29T05:25:17.060Z,253.59
2023-05-29T05:26:17.083Z,257.35
2023-05-29T05:27:17.052Z,256.15
2023-05-29T05:28:17.024Z,263.92
2023-05-29T05:29:17.021Z,265.19
2023-05-29T05:30:17.016Z,267.33
2023-05-29T05:31:17.036Z,259.98
2023-05-29T05:32:17.046Z,249.38
2023-05-29T05:33:16.986Z,245.86
2023-05-29T05:34:16.961Z,255.55
2023-05-29T05:35:16.956Z,266.04
2023-05-29T05:36:16.936Z,271.95
2023-05-29T05:37:16.935Z,280.97
2023-05-29T05:38:16.940Z,294.48
2023-05-29T05:39:16.922Z,307.35
2023-05-29T05:40:16.903Z,309.37
2023-05-29T05:41:16.890Z,309.37
2023-05-29T05:42:16.886Z,303.96
2023-05-29T05:43:16.876Z,298.74
2023-05-29T05:44:16.909Z,300.64
2023-05-29T05:45:16.845Z,309.08
2023-05-29T05:46:16.873Z,301.74
2023-05-29T05:47:16.823Z,302.29
2023-05-29T05:48:16.827Z,302.02
2023-05-29T05:49:16.814Z,308.21
2023-05-29T05:50:16.818Z,314.37
2023-05-29T05:51:16.789Z,318.61
2023-05-29T05:52:16.783Z,326.80
2023-05-29T05:53:16.764Z,332.05
2023-05-29T05:54:16.748Z,344.87
2023-05-29T05:55:16.747Z,341.31
2023-05-29T05:56:16.739Z,336.44
2023-05-29T05:57:16.718Z,330.06
2023-05-29T05:58:16.712Z,314.37
2023-05-29T05:59:16.709Z,318.30
2023-05-29T06:00:16.698Z,326.48
2023-05-29T06:01:16.673Z,335.42
2023-05-29T06:02:16.717Z,335.42
2023-05-29T06:03:16.877Z,343.79
2023-05-29T06:04:16.739Z,346.68
2023-05-29T06:05:16.647Z,350.35
2023-05-29T06:06:16.619Z,348.87
2023-05-29T06:07:16.609Z,345.59
2023-05-29T06:08:16.617Z,356.01
2023-05-29T06:09:16.590Z,354.10
2023-05-29T06:10:16.580Z,354.86
2023-05-29T06:11:16.569Z,347.77
2023-05-29T06:12:16.563Z,341.31
2023-05-29T06:13:16.564Z,340.25
2023-05-29T06:14:16.544Z,340.60
2023-05-29T06:15:16.530Z,344.51
2023-05-29T06:16:16.579Z,347.77
2023-05-29T06:17:16.560Z,335.42
2023-05-29T06:18:16.552Z,340.60
2023-05-29T06:19:16.494Z,356.78
2023-05-29T06:20:16.560Z,372.04
2023-05-29T06:21:16.468Z,365.86
2023-05-29T06:22:16.454Z,353.72
2023-05-29T06:23:16.433Z,341.66
2023-05-29T06:24:16.492Z,333.73
2023-05-29T06:25:16.420Z,343.08
2023-05-29T06:26:16.411Z,346.68
2023-05-29T06:27:16.395Z,345.95
2023-05-29T06:28:16.411Z,342.01
2023-05-29T06:29:16.488Z,345.59
2023-05-29T06:30:16.409Z,350.72
2023-05-29T06:31:16.432Z,351.10
2023-05-29T06:32:16.372Z,346.31
2023-05-29T06:33:16.334Z,346.31
2023-05-29T06:34:16.330Z,349.24
2023-05-29T06:35:16.310Z,348.14
2023-05-29T06:36:16.314Z,351.84
2023-05-29T06:37:16.345Z,370.37
2023-05-29T06:38:16.313Z,381.29
2023-05-29T06:39:16.309Z,384.56
2023-05-29T06:40:16.271Z,387.67
2023-05-29T06:41:16.247Z,394.27
2023-05-29T06:42:16.258Z,414.71
2023-05-29T06:43:16.296Z,425.48
2023-05-29T06:44:16.258Z,429.83
2023-05-29T06:45:16.252Z,419.89
2023-05-29T06:46:16.293Z,411.41
2023-05-29T06:47:16.383Z,412.92
2023-05-29T06:48:16.777Z,418.32
2023-05-29T06:49:16.311Z,428.19
2023-05-29T06:50:16.161Z,428.46
2023-05-29T06:51:16.169Z,369.13
2023-05-29T06:52:16.148Z,396.36
2023-05-29T06:53:16.190Z,382.81
2023-05-29T06:54:16.182Z,386.55
2023-05-29T06:55:16.324Z,389.24
2023-05-29T06:56:16.111Z,419.89
2023-05-29T06:57:16.320Z,434.84
2023-05-29T06:58:16.096Z,418.32
2023-05-29T06:59:16.063Z,413.43
2023-05-29T07:00:16.055Z,405.69
2023-05-29T07:01:16.140Z,408.16
2023-05-29T07:02:16.029Z,437.96
2023-05-29T07:03:16.129Z,436.82
2023-05-29T07:04:16.054Z,432.04
2023-05-29T07:05:16.054Z,439.68
2023-05-29T07:06:16.111Z,423.60
2023-05-29T07:07:15.961Z,414.45
2023-05-29T07:08:15.979Z,428.73
2023-05-29T07:09:15.983Z,447.59
2023-05-29T07:10:15.940Z,457.65
2023-05-29T07:11:15.941Z,464.93
2023-05-29T07:12:16.008Z,453.02
2023-05-29T07:13:15.997Z,421.21
2023-05-29T07:14:15.949Z,399.90
2023-05-29T07:15:15.882Z,403.02
2023-05-29T07:16:24.411Z,418.85
2023-05-29T07:17:16.035Z,420.15
2023-05-29T07:18:16.041Z,394.96
2023-05-29T07:19:21.285Z,373.72
2023-05-29T07:20:15.876Z,382.81
2023-05-29T07:21:15.865Z,407.66
2023-05-29T07:22:15.846Z,423.60
2023-05-29T07:23:15.872Z,426.02
2023-05-29T07:24:15.869Z,435.97
2023-05-29T07:25:15.798Z,458.90
2023-05-29T07:26:15.799Z,457.65
2023-05-29T07:27:16.143Z,457.65
2023-05-29T07:29:15.797Z,459.84
2023-05-29T07:30:15.753Z,470.80
2023-05-29T07:31:15.720Z,469.81
2023-05-29T07:32:15.710Z,468.83
2023-05-29T07:33:15.687Z,460.16
2023-05-29T07:34:15.684Z,456.71
2023-05-29T07:35:15.686Z,444.92
2023-05-29T07:36:15.658Z,469.48
2023-05-29T07:37:15.680Z,454.55
2023-05-29T07:38:15.637Z,452.41
2023-05-29T07:39:15.627Z,432.60
2023-05-29T07:40:15.623Z,445.51
2023-05-29T07:41:15.626Z,438.24
2023-05-29T07:42:15.617Z,430.38
2023-05-29T07:43:15.649Z,427.92
2023-05-29T07:44:15.580Z,431.21
2023-05-29T07:45:15.585Z,430.66
2023-05-29T07:46:15.594Z,437.39
2023-05-29T07:47:15.642Z,467.85
2023-05-29T07:48:15.628Z,490.74
2023-05-29T07:49:15.592Z,493.99
2023-05-29T07:50:15.517Z,485.77
2023-05-29T07:51:15.498Z,486.13
2023-05-29T07:52:15.526Z,492.90
2023-05-29T07:53:15.469Z,507.81
2023-05-29T07:54:15.468Z,495.08
2023-05-29T07:55:15.461Z,528.58
2023-05-29T07:56:15.439Z,518.39
2023-05-29T07:57:15.436Z,494.35
2023-05-29T07:58:15.433Z,510.89
2023-05-29T07:59:15.412Z,517.59
2023-05-29T08:00:15.453Z,520.80
2023-05-29T08:01:15.404Z,517.59
2023-05-29T08:02:15.380Z,543.11
2023-05-29T08:03:15.483Z,528.17
2023-05-29T08:04:15.373Z,523.64
2023-05-29T08:05:15.404Z,518.79
2023-05-29T08:06:15.410Z,526.51
2023-05-29T08:07:15.368Z,526.10
2023-05-29T08:08:15.332Z,525.69
2023-05-29T08:09:15.320Z,516.00
2023-05-29T08:10:15.303Z,524.05
2023-05-29T08:11:15.286Z,517.59
2023-05-29T08:12:15.309Z,538.76
2023-05-29T08:13:15.281Z,506.27
2023-05-29T08:14:15.264Z,468.17
2023-05-29T08:15:15.255Z,486.83
2023-05-29T08:16:15.514Z,513.24
2023-05-29T08:17:16.453Z,525.28
2023-05-29T08:18:15.266Z,536.60
2023-05-29T08:19:15.212Z,525.69
2023-05-29T08:20:15.247Z,505.89
2023-05-29T08:21:15.180Z,494.72
2023-05-29T08:22:15.178Z,524.05
2023-05-29T08:23:15.175Z,532.77
2023-05-29T08:24:15.150Z,529.00
2023-05-29T08:25:15.221Z,546.20
2023-05-29T08:26:15.127Z,544.43
2023-05-29T08:27:15.117Z,509.73
2023-05-29T08:28:15.111Z,525.28
2023-05-29T08:29:15.142Z,552.04
2023-05-29T08:30:15.083Z,545.76
2023-05-29T08:31:15.160Z,547.98
2023-05-29T08:32:15.078Z,529.00
2023-05-29T08:33:15.092Z,547.09
2023-05-29T08:34:15.050Z,539.62
2023-05-29T08:35:15.066Z,524.46
2023-05-29T08:36:15.022Z,543.55
2023-05-29T08:37:15.014Z,563.14
2023-05-29T08:38:15.022Z,560.32
2023-05-29T08:39:15.004Z,557.07
2023-05-29T08:40:14.988Z,570.80
2023-05-29T08:41:15.035Z,542.67
2023-05-29T08:42:15.062Z,515.21
2023-05-29T08:43:14.968Z,534.47
2023-05-29T08:44:15.072Z,556.61
2023-05-29T08:45:14.933Z,568.38
2023-05-29T08:46:14.983Z,573.23
2023-05-29T08:47:15.025Z,570.31
2023-05-29T08:48:15.082Z,582.17
2023-05-29T08:49:14.883Z,565.51
2023-05-29T08:50:15.133Z,547.09
2023-05-29T08:51:15.024Z,577.67
2023-05-29T08:52:14.857Z,573.23
2023-05-29T08:53:14.859Z,586.75
2023-05-29T08:54:15.129Z,568.86
2023-05-29T08:55:14.913Z,588.81
2023-05-29T08:56:23.073Z,587.78
2023-05-29T08:57:14.826Z,596.65
2023-05-29T08:58:14.818Z,610.75
2023-05-29T08:59:14.943Z,605.25
2023-05-29T09:00:14.780Z,587.26
2023-05-29T09:01:14.858Z,589.84
2023-05-29T09:02:14.864Z,573.72
2023-05-29T09:03:14.857Z,589.32
2023-05-29T09:04:14.782Z,566.94
2023-05-29T09:05:14.751Z,567.90
2023-05-29T09:06:14.707Z,579.16
2023-05-29T09:07:14.859Z,587.26
2023-05-29T09:08:14.687Z,580.16
2023-05-29T09:09:14.693Z,590.36
2023-05-29T09:10:14.865Z,556.61
2023-05-29T09:11:14.813Z,566.94
2023-05-29T09:12:15.715Z,561.73
2023-05-29T09:14:01.161Z,569.83
2023-05-29T09:14:14.713Z,573.23
2023-05-29T09:15:14.653Z,583.69
2023-05-29T09:16:14.634Z,602.00
2023-05-29T09:17:14.706Z,601.46
2023-05-29T09:18:14.675Z,582.68
2023-05-29T09:19:14.568Z,574.21
2023-05-29T09:20:14.620Z,597.18
2023-05-29T09:21:14.569Z,616.92
2023-05-29T09:22:14.542Z,619.77
2023-05-29T09:23:14.533Z,624.96
2023-05-29T09:24:14.554Z,635.00
2023-05-29T09:25:14.524Z,609.09
2023-05-29T09:26:14.529Z,609.64
2023-05-29T09:27:14.496Z,618.63
2023-05-29T09:28:14.478Z,627.88
2023-05-29T09:29:14.481Z,620.91
2023-05-29T09:30:14.452Z,582.17
2023-05-29T09:31:14.511Z,572.26
2023-05-29T09:32:14.426Z,570.31
2023-05-29T09:33:14.422Z,576.68
2023-05-29T09:34:14.439Z,589.32
2023-05-29T09:35:14.410Z,589.84
2023-05-29T09:36:14.418Z,579.16
2023-05-29T09:37:16.192Z,591.40
2023-05-29T09:38:24.802Z,606.34
2023-05-29T09:39:17.948Z,596.65
2023-05-29T09:40:14.343Z,607.44
2023-05-29T09:41:14.404Z,606.89
2023-05-29T09:42:14.361Z,629.64
2023-05-29T09:43:14.350Z,636.80
2023-05-29T09:44:14.301Z,635.00
2023-05-29T09:45:14.308Z,576.18
2023-05-29T09:46:14.308Z,578.16
2023-05-29T09:47:14.299Z,591.40
2023-05-29T09:48:14.313Z,596.12
2023-05-29T09:49:14.313Z,593.49
2023-05-29T09:50:14.246Z,595.59
2023-05-29T09:51:14.220Z,616.92
2023-05-29T09:52:14.210Z,615.79
2023-05-29T09:53:14.198Z,648.48
2023-05-29T09:54:14.211Z,661.25
2023-05-29T09:55:14.200Z,627.88
2023-05-29T09:56:14.177Z,643.51
2023-05-29T09:57:14.174Z,628.46
2023-05-29T09:58:14.163Z,600.38
2023-05-29T09:59:14.166Z,633.20
2023-05-29T10:00:14.153Z,645.99
2023-05-29T10:01:14.118Z,599.31
2023-05-29T10:02:15.140Z,613.54
2023-05-29T10:03:14.205Z,597.18
2023-05-29T10:04:14.116Z,572.26
2023-05-29T10:05:14.195Z,587.78
2023-05-29T10:06:14.059Z,609.09
2023-05-29T10:07:14.038Z,631.42
2023-05-29T10:08:14.095Z,620.91
2023-05-29T10:09:14.031Z,620.34
2023-05-29T10:10:14.020Z,636.20
2023-05-29T10:11:14.030Z,652.89
2023-05-29T10:12:14.041Z,653.53
2023-05-29T10:13:13.986Z,649.74
2023-05-29T10:14:13.990Z,656.08
2023-05-29T10:15:13.989Z,653.53
2023-05-29T10:16:14.614Z,644.13
2023-05-29T10:17:13.940Z,607.99
2023-05-29T10:18:13.972Z,607.99
2023-05-29T10:19:13.937Z,631.42
2023-05-29T10:20:13.948Z,624.38
2023-05-29T10:21:13.950Z,642.28
2023-05-29T10:22:13.955Z,642.28
2023-05-29T10:23:13.884Z,642.28
2023-05-29T10:24:13.872Z,597.18
2023-05-29T10:25:13.861Z,635.60
2023-05-29T10:26:13.853Z,645.37
2023-05-29T10:27:13.823Z,661.90
2023-05-29T10:28:13.823Z,642.28
2023-05-29T10:29:13.831Z,623.22
2023-05-29T10:30:13.802Z,626.12
2023-05-29T10:31:13.822Z,633.20
2023-05-29T10:32:13.966Z,654.16
2023-05-29T10:33:13.898Z,652.26
2023-05-29T10:34:13.752Z,651.00
2023-05-29T10:35:13.752Z,657.37
2023-05-29T10:36:13.751Z,645.99
2023-05-29T10:37:13.735Z,649.11
2023-05-29T10:38:13.733Z,655.44
2023-05-29T10:39:13.732Z,674.53
2023-05-29T10:40:13.692Z,652.89
2023-05-29T10:41:13.726Z,647.86
2023-05-29T10:42:13.680Z,658.01
2023-05-29T10:43:13.654Z,651.63
2023-05-29T10:44:13.659Z,649.11
2023-05-29T10:45:13.665Z,692.61
2023-05-29T10:46:13.702Z,698.37
2023-05-29T10:47:13.945Z,691.18
2023-05-29T10:48:13.689Z,620.91
2023-05-29T10:49:13.601Z,627.29
2023-05-29T10:50:13.580Z,636.80
2023-05-29T10:51:13.569Z,645.99
2023-05-29T10:52:13.586Z,604.16
2023-05-29T10:53:13.561Z,633.20
2023-05-29T10:54:13.554Z,647.86
2023-05-29T10:55:13.522Z,656.72
2023-05-29T10:56:13.515Z,656.72
2023-05-29T10:57:13.501Z,663.86
2023-05-29T10:58:13.508Z,669.15
2023-05-29T10:59:13.494Z,658.66
2023-05-29T11:00:13.491Z,686.24
2023-05-29T11:01:13.517Z,678.61
2023-05-29T11:02:13.481Z,665.84
2023-05-29T11:03:13.446Z,682.06
2023-05-29T11:04:13.474Z,659.95
2023-05-29T11:05:13.428Z,659.95
2023-05-29T11:06:13.435Z,673.17
2023-05-29T11:07:13.455Z,679.99
2023-05-29T11:08:13.414Z,699.09
2023-05-29T11:09:13.386Z,692.61
2023-05-29T11:10:13.361Z,697.64
2023-05-29T11:11:13.362Z,727.87
2023-05-29T11:12:13.382Z,727.09
2023-05-29T11:13:13.329Z,723.95
2023-05-29T11:14:13.330Z,716.23
2023-05-29T11:15:13.522Z,685.54
2023-05-29T11:16:13.353Z,703.48
2023-05-29T11:17:13.298Z,691.18
2023-05-29T11:18:13.378Z,711.68
2023-05-29T11:19:13.295Z,696.92
2023-05-29T11:20:13.276Z,697.64
2023-05-29T11:21:13.258Z,706.44
2023-05-29T11:22:13.274Z,730.25
2023-05-29T11:23:14.751Z,718.53
2023-05-29T11:24:13.228Z,727.09
2023-05-29T11:25:13.206Z,729.46
2023-05-29T11:26:13.180Z,696.92
2023-05-29T11:27:13.187Z,714.71
2023-05-29T11:28:13.164Z,707.93
2023-05-29T11:29:13.271Z,705.70
2023-05-29T11:30:13.188Z,719.30
2023-05-29T11:31:13.227Z,701.28
2023-05-29T11:32:13.144Z,705.70
2023-05-29T11:33:13.100Z,740.71
2023-05-29T11:34:13.238Z,764.64
2023-05-29T11:35:13.248Z,735.85
2023-05-29T11:36:13.100Z,728.66
2023-05-29T11:37:13.125Z,761.18
2023-05-29T11:38:13.050Z,770.77
2023-05-29T11:39:13.043Z,776.56
2023-05-29T11:40:13.030Z,775.66
2023-05-29T11:41:13.054Z,789.78
2023-05-29T11:42:13.276Z,799.64
2023-05-29T11:43:13.031Z,774.77
2023-05-29T11:44:13.061Z,769.89
2023-05-29T11:45:12.994Z,786.55
2023-05-29T11:46:12.979Z,762.47
2023-05-29T11:47:13.014Z,743.17
2023-05-29T11:48:13.007Z,756.04
2023-05-29T11:49:12.960Z,782.43
2023-05-29T11:50:13.048Z,777.46
2023-05-29T11:51:12.917Z,734.24
2023-05-29T11:53:12.883Z,738.27
2023-05-29T11:54:12.876Z,738.27
2023-05-29T11:55:12.864Z,741.53
2023-05-29T11:56:12.930Z,723.95
2023-05-29T11:57:12.853Z,711.68
2023-05-29T11:58:12.831Z,734.24
2023-05-29T11:59:12.832Z,748.47
2023-05-29T12:00:12.845Z,750.56
2023-05-29T12:01:12.821Z,748.05
2023-05-29T12:02:12.838Z,743.17
2023-05-29T12:03:12.827Z,666.50
2023-05-29T12:04:12.766Z,665.84
2023-05-29T12:05:13.082Z,664.52
2023-05-29T12:06:12.814Z,661.25
2023-05-29T12:07:12.751Z,667.82
2023-05-29T12:08:12.725Z,670.49
2023-05-29T12:09:12.711Z,702.75
2023-05-29T12:10:12.787Z,723.95
2023-05-29T12:11:12.792Z,726.30
2023-05-29T12:12:12.707Z,747.31
2023-05-29T12:13:12.699Z,747.64
2023-05-29T12:14:12.712Z,729.46
2023-05-29T12:15:12.656Z,771.66
2023-05-29T12:16:12.646Z,760.75
2023-05-29T12:17:12.775Z,757.32
2023-05-29T12:18:12.802Z,741.53
2023-05-29T12:19:12.610Z,704.96
2023-05-29T12:20:12.749Z,680.68
2023-05-29T12:21:12.586Z,698.37
2023-05-29T12:22:12.615Z,696.92
2023-05-29T12:23:12.590Z,677.93
2023-05-29T12:24:15.068Z,702.75
2023-05-29T12:25:12.567Z,697.64
2023-05-29T12:26:12.561Z,716.23
2023-05-29T12:27:12.809Z,702.01
2023-05-29T12:28:12.560Z,680.68
2023-05-29T12:29:12.594Z,682.75
2023-05-29T12:30:17.586Z,675.88